Aviation Digital Data Service (ADDS)

Output produced by METARs form (2015 UTC 01 August 2015)
found at http://aviationweather.gov/adds/metars/
 
KHLG 011720Z 0118/0218 29008G16KT P6SM SCT060 
     FM020000 26003KT P6SM SCT100 
     FM021500 21007KT P6SM SCT050